createdAt,value
2023-01-29T00:05:43.010Z,-2.54
2023-01-29T00:15:54.734Z,-2.66
2023-01-29T00:25:59.756Z,-2.66
2023-01-29T00:36:09.550Z,-2.74
2023-01-29T00:46:11.340Z,-2.84
2023-01-29T00:56:12.904Z,-2.89
2023-01-29T01:06:14.330Z,-2.88
2023-01-29T01:16:18.965Z,-2.97
2023-01-29T01:26:20.335Z,-3.02
2023-01-29T01:36:21.954Z,-3.03
2023-01-29T01:46:28.551Z,-3.11
2023-01-29T01:56:40.506Z,-3.08
2023-01-29T02:07:02.428Z,-3.05
2023-01-29T02:17:03.898Z,-2.91
2023-01-29T02:27:09.439Z,-2.87
2023-01-29T02:37:13.724Z,-2.91
2023-01-29T02:47:35.701Z,-2.90
2023-01-29T02:57:44.728Z,-2.93
2023-01-29T03:19:13.622Z,-3.02
2023-01-29T03:29:33.628Z,-3.15
2023-01-29T03:39:36.908Z,-3.12
2023-01-29T03:49:47.454Z,-3.10
2023-01-29T03:59:54.939Z,-3.01
2023-01-29T04:10:02.818Z,-2.95
2023-01-29T04:20:04.603Z,-2.84
2023-01-29T04:30:21.288Z,-2.61
2023-01-29T04:40:40.281Z,-2.58
2023-01-29T04:50:56.759Z,-2.40
2023-01-29T05:01:01.013Z,-2.31
2023-01-29T05:11:02.470Z,-2.26
2023-01-29T05:21:07.442Z,-2.16
2023-01-29T05:31:09.700Z,-1.92
2023-01-29T05:41:11.218Z,-1.85
2023-01-29T05:51:12.757Z,-1.83
2023-01-29T06:01:17.281Z,-1.78
2023-01-29T06:11:18.934Z,-1.68
2023-01-29T06:21:20.477Z,-1.60
2023-01-29T06:31:37.443Z,-1.51
2023-01-29T06:41:39.574Z,-1.37
2023-01-29T06:51:41.097Z,-1.37
2023-01-29T07:01:44.339Z,-1.34
2023-01-29T07:11:46.005Z,-1.30
2023-01-29T07:21:47.422Z,-1.21
2023-01-29T07:31:49.118Z,-1.10
2023-01-29T07:41:50.743Z,-1.10
2023-01-29T07:51:52.079Z,-1.04
2023-01-29T08:01:53.476Z,-0.99
2023-01-29T08:11:54.945Z,-0.86
2023-01-29T08:21:56.424Z,-0.86
2023-01-29T08:31:57.948Z,-0.79
2023-01-29T08:41:59.535Z,-0.74
2023-01-29T08:52:02.987Z,-0.67
2023-01-29T09:02:04.668Z,-0.61
2023-01-29T09:12:06.429Z,-0.51
2023-01-29T09:22:08.310Z,-0.51
2023-01-29T09:32:10.637Z,-0.41
2023-01-29T09:42:31.616Z,-0.30
2023-01-29T09:52:37.789Z,-0.25
2023-01-29T10:13:39.467Z,-0.04
2023-01-29T10:23:47.761Z,0.04
2023-01-29T10:34:01.999Z,0.07
2023-01-29T10:44:25.233Z,0.20
2023-01-29T10:55:08.112Z,0.26
2023-01-29T11:05:33.103Z,0.32
2023-01-29T11:15:34.938Z,0.41
2023-01-29T11:25:36.520Z,0.47
2023-01-29T11:35:38.040Z,0.61
2023-01-29T11:45:40.366Z,0.63
2023-01-29T11:55:50.880Z,0.69
2023-01-29T12:05:59.463Z,0.88
2023-01-29T12:16:12.784Z,0.94
2023-01-29T12:26:34.198Z,1.13
2023-01-29T12:36:43.874Z,1.26
2023-01-29T12:46:53.916Z,1.31
2023-01-29T12:56:59.894Z,1.39
2023-01-29T13:07:28.265Z,1.59
2023-01-29T13:18:02.836Z,1.57
2023-01-29T13:28:04.466Z,1.73
2023-01-29T13:38:17.052Z,1.76
2023-01-29T13:48:28.920Z,1.80
2023-01-29T13:58:33.393Z,1.83
2023-01-29T14:08:34.709Z,1.90
2023-01-29T14:18:44.634Z,1.91
2023-01-29T14:29:00.681Z,1.96
2023-01-29T14:39:02.144Z,1.95
2023-01-29T14:49:03.661Z,2.00
2023-01-29T14:59:20.851Z,2.03
2023-01-29T15:09:32.698Z,2.09
2023-01-29T15:19:44.803Z,2.10
2023-01-29T15:30:17.682Z,2.10
2023-01-29T15:40:19.669Z,2.14
2023-01-29T15:50:21.981Z,2.16
2023-01-29T16:00:29.669Z,2.16
2023-01-29T16:10:32.439Z,2.18
2023-01-29T16:20:39.102Z,2.18
2023-01-29T16:30:40.775Z,2.21
2023-01-29T16:41:15.931Z,2.28
2023-01-29T16:51:38.492Z,2.26
2023-01-29T17:01:39.870Z,2.30
2023-01-29T17:11:44.393Z,2.34
2023-01-29T17:21:46.731Z,2.34
2023-01-29T17:31:48.440Z,2.36
2023-01-29T17:41:52.463Z,2.38
2023-01-29T17:51:55.603Z,2.40
2023-01-29T18:01:57.221Z,2.45
2023-01-29T18:11:58.659Z,2.44
2023-01-29T18:22:00.154Z,2.49
2023-01-29T18:32:02.023Z,2.50
2023-01-29T18:42:03.629Z,2.53
2023-01-29T18:52:06.466Z,2.52
2023-01-29T19:02:07.949Z,2.50
2023-01-29T19:12:09.854Z,2.53
2023-01-29T19:22:11.434Z,2.54
2023-01-29T19:32:12.911Z,2.58
2023-01-29T19:42:14.594Z,2.60
2023-01-29T19:52:49.904Z,2.65
2023-01-29T20:02:52.453Z,2.65
2023-01-29T20:12:53.935Z,2.68
2023-01-29T20:22:55.539Z,2.71
2023-01-29T20:32:57.012Z,2.79
2023-01-29T20:42:58.476Z,2.79
2023-01-29T20:52:59.918Z,2.81
2023-01-29T21:03:01.618Z,2.83
2023-01-29T21:13:03.189Z,2.93
2023-01-29T21:23:07.036Z,2.92
2023-01-29T21:33:08.720Z,2.92
2023-01-29T21:43:13.072Z,3.00
2023-01-29T21:53:15.036Z,3.02
2023-01-29T22:03:16.639Z,3.06
2023-01-29T22:13:18.781Z,3.07
2023-01-29T22:23:20.232Z,3.09
2023-01-29T22:33:21.763Z,3.15
2023-01-29T22:43:25.818Z,3.16
2023-01-29T22:53:27.256Z,3.22
2023-01-29T23:03:28.830Z,3.24
2023-01-29T23:13:30.303Z,3.33
2023-01-29T23:23:33.507Z,3.37
2023-01-29T23:33:34.900Z,3.47
2023-01-29T23:43:37.517Z,3.45
2023-01-29T23:53:39.142Z,3.53
